createdAt,value
2018-08-22T00:00:34.570Z,932.20
2018-08-22T00:02:06.392Z,932.23
2018-08-22T00:03:37.712Z,932.28
2018-08-22T00:05:09.284Z,932.26
2018-08-22T00:06:40.855Z,932.26
2018-08-22T00:08:12.525Z,932.26
2018-08-22T00:09:43.997Z,932.26
2018-08-22T00:11:15.567Z,932.30
2018-08-22T00:12:47.139Z,932.32
2018-08-22T00:14:18.810Z,932.29
2018-08-22T00:15:50.280Z,932.32
2018-08-22T00:17:21.851Z,932.24
2018-08-22T00:20:25.193Z,932.29
2018-08-22T00:21:56.565Z,932.28
2018-08-22T00:23:28.134Z,932.33
2018-08-22T00:24:59.705Z,932.33
2018-08-22T00:26:31.376Z,932.33
2018-08-22T00:28:02.846Z,932.28
2018-08-22T00:29:34.419Z,932.23
2018-08-22T00:31:05.989Z,932.18
2018-08-22T00:32:37.660Z,932.16
2018-08-22T00:34:09.131Z,932.15
2018-08-22T00:35:40.702Z,932.15
2018-08-22T00:37:12.273Z,932.20
2018-08-22T00:38:44.044Z,932.13
2018-08-22T00:40:15.414Z,932.16
2018-08-22T00:41:46.985Z,932.12
2018-08-22T00:43:18.557Z,932.13
2018-08-22T00:44:50.231Z,932.17
2018-08-22T00:46:21.699Z,932.15
2018-08-22T00:47:53.271Z,932.14
2018-08-22T00:49:24.842Z,932.13
2018-08-22T00:50:56.513Z,932.10
2018-08-22T00:52:27.984Z,932.12
2018-08-22T00:53:59.556Z,932.15
2018-08-22T00:55:31.127Z,932.19
2018-08-22T00:57:02.949Z,932.18
2018-08-22T00:58:34.270Z,932.12
2018-08-22T01:00:05.841Z,932.14
2018-08-22T01:01:37.413Z,932.14
2018-08-22T01:03:09.085Z,932.14
2018-08-22T01:04:40.555Z,932.12
2018-08-22T01:06:12.145Z,932.09
2018-08-22T01:07:43.698Z,932.07
2018-08-22T01:09:15.369Z,932.04
2018-08-22T01:10:46.841Z,932.02
2018-08-22T01:12:18.412Z,931.98
2018-08-22T01:13:49.983Z,932.04
2018-08-22T01:15:21.755Z,932.00
2018-08-22T01:16:53.327Z,932.00
2018-08-22T01:18:24.697Z,931.94
2018-08-22T01:19:56.269Z,931.91
2018-08-22T01:21:27.943Z,931.84
2018-08-22T01:22:59.411Z,931.89
2018-08-22T01:24:30.982Z,931.85
2018-08-22T01:26:02.557Z,931.90
2018-08-22T01:27:34.225Z,931.88
2018-08-22T01:29:05.696Z,931.89
2018-08-22T01:30:37.267Z,931.92
2018-08-22T01:32:08.838Z,931.91
2018-08-22T01:33:40.660Z,931.95
2018-08-22T01:35:11.981Z,931.94
2018-08-22T01:36:43.552Z,931.95
2018-08-22T01:38:15.123Z,931.98
2018-08-22T01:39:46.794Z,931.98
2018-08-22T01:41:18.265Z,931.97
2018-08-22T01:42:49.836Z,931.98
2018-08-22T01:44:21.407Z,931.97
2018-08-22T01:45:53.078Z,931.97
2018-08-22T01:47:24.549Z,932.04
2018-08-22T01:48:56.121Z,932.07
2018-08-22T01:50:27.691Z,932.06
2018-08-22T01:51:59.462Z,932.10
2018-08-22T01:53:30.840Z,932.12
2018-08-22T01:55:02.409Z,932.11
2018-08-22T01:56:33.976Z,932.16
2018-08-22T01:58:05.649Z,932.15
2018-08-22T01:59:37.119Z,932.20
2018-08-22T02:01:08.689Z,932.18
2018-08-22T02:02:40.261Z,932.20
2018-08-22T02:04:11.933Z,932.23
2018-08-22T02:05:43.605Z,932.21
2018-08-22T02:07:14.975Z,932.22
2018-08-22T02:08:46.547Z,932.23
2018-08-22T02:10:18.368Z,932.18
2018-08-22T02:11:49.689Z,932.15
2018-08-22T02:13:21.260Z,932.10
2018-08-22T02:14:52.832Z,932.05
2018-08-22T02:16:24.505Z,932.06
2018-08-22T02:17:56.181Z,932.09
2018-08-22T02:19:27.546Z,932.08
2018-08-22T02:20:59.119Z,932.08
2018-08-22T02:22:30.789Z,932.00
2018-08-22T02:24:02.261Z,931.98
2018-08-22T02:25:33.839Z,931.99
2018-08-22T02:27:05.404Z,931.95
2018-08-22T02:28:37.175Z,931.94
2018-08-22T02:30:08.549Z,931.89
2018-08-22T02:31:40.654Z,931.90
2018-08-22T02:33:11.690Z,931.96
2018-08-22T02:34:43.361Z,931.97
2018-08-22T02:36:14.832Z,931.95
2018-08-22T02:37:46.410Z,931.94
2018-08-22T02:39:17.974Z,931.98
2018-08-22T02:40:49.648Z,931.95
2018-08-22T02:42:21.117Z,931.97
2018-08-22T02:43:52.688Z,931.91
2018-08-22T02:45:24.259Z,931.91
2018-08-22T02:46:56.031Z,931.92
2018-08-22T02:48:27.401Z,931.92
2018-08-22T02:49:58.974Z,931.92
2018-08-22T02:51:30.544Z,931.88
2018-08-22T02:53:02.214Z,931.83
2018-08-22T02:54:33.685Z,931.80
2018-08-22T02:56:05.256Z,931.77
2018-08-22T02:57:36.828Z,931.70
2018-08-22T02:59:08.506Z,931.67
2018-08-22T03:00:39.971Z,931.63
2018-08-22T03:02:11.540Z,931.63
2018-08-22T03:03:43.116Z,931.55
2018-08-22T03:06:46.505Z,931.53
2018-08-22T03:08:17.832Z,931.49
2018-08-22T03:09:49.396Z,931.45
2018-08-22T03:11:20.967Z,931.45
2018-08-22T03:12:52.843Z,931.46
2018-08-22T03:14:24.108Z,931.45
2018-08-22T03:15:55.680Z,931.50
2018-08-22T03:17:27.249Z,931.46
2018-08-22T03:18:58.919Z,931.42
2018-08-22T03:20:30.390Z,931.45
2018-08-22T03:22:01.962Z,931.45
2018-08-22T03:23:33.531Z,931.45
2018-08-22T03:25:05.503Z,931.52
2018-08-22T03:26:36.674Z,931.51
2018-08-22T03:28:08.247Z,931.54
2018-08-22T03:31:11.486Z,931.40
2018-08-22T03:32:42.956Z,931.38
2018-08-22T03:34:14.526Z,931.37
2018-08-22T03:35:46.098Z,931.34
2018-08-22T03:37:17.773Z,931.35
2018-08-22T03:38:49.240Z,931.36
2018-08-22T03:40:20.810Z,931.35
2018-08-22T03:41:52.384Z,931.33
2018-08-22T03:43:24.302Z,931.33
2018-08-22T03:44:55.526Z,931.28
2018-08-22T03:46:27.093Z,931.27
2018-08-22T03:47:58.664Z,931.22
2018-08-22T03:49:30.335Z,931.14
2018-08-22T03:51:01.806Z,931.13
2018-08-22T03:52:33.377Z,931.08
2018-08-22T03:54:04.947Z,931.05
2018-08-22T03:55:36.618Z,931.04
2018-08-22T03:57:08.090Z,931.00
2018-08-22T03:58:39.661Z,931.05
2018-08-22T04:00:11.230Z,931.04
2018-08-22T04:01:43.052Z,931.04
2018-08-22T04:03:14.373Z,931.03
2018-08-22T04:04:45.942Z,931.07
2018-08-22T04:06:18.423Z,931.03
2018-08-22T04:07:49.183Z,931.03
2018-08-22T04:09:20.656Z,931.08
2018-08-22T04:10:52.427Z,931.10
2018-08-22T04:12:23.795Z,931.07
2018-08-22T04:13:55.466Z,931.10
2018-08-22T04:15:26.936Z,931.15
2018-08-22T04:16:58.507Z,931.11
2018-08-22T04:18:30.078Z,931.05
2018-08-22T04:20:01.901Z,930.98
2018-08-22T04:21:33.221Z,930.87
2018-08-22T04:23:04.793Z,930.80
2018-08-22T04:24:36.361Z,930.79
2018-08-22T04:26:08.032Z,930.81
2018-08-22T04:27:39.706Z,930.84
2018-08-22T04:29:11.074Z,930.83
2018-08-22T04:30:42.646Z,930.80
2018-08-22T04:32:14.467Z,930.84
2018-08-22T04:33:45.787Z,930.85
2018-08-22T04:35:17.357Z,930.79
2018-08-22T04:36:48.928Z,930.82
2018-08-22T04:38:20.759Z,930.77
2018-08-22T04:39:52.070Z,930.79
2018-08-22T04:41:23.641Z,930.82
2018-08-22T04:42:55.211Z,930.86
2018-08-22T04:44:26.882Z,930.86
2018-08-22T04:45:58.354Z,930.84
2018-08-22T04:47:29.924Z,930.81
2018-08-22T04:49:01.495Z,930.82
2018-08-22T04:50:33.166Z,930.78
2018-08-22T04:52:04.636Z,930.77
2018-08-22T04:53:36.207Z,930.80
2018-08-22T04:55:07.779Z,930.78
2018-08-22T04:56:39.600Z,930.83
2018-08-22T04:58:10.920Z,930.80
2018-08-22T04:59:42.491Z,930.84
2018-08-22T05:01:14.062Z,930.86
2018-08-22T05:02:45.883Z,930.83
2018-08-22T05:04:17.204Z,930.81
2018-08-22T05:05:48.776Z,930.80
2018-08-22T05:07:20.348Z,930.80
2018-08-22T05:08:52.019Z,930.80
2018-08-22T05:10:23.489Z,930.73
2018-08-22T05:11:55.058Z,930.69
2018-08-22T05:13:26.630Z,930.66
2018-08-22T05:14:58.400Z,930.68
2018-08-22T05:16:29.775Z,930.68
2018-08-22T05:18:01.343Z,930.65
2018-08-22T05:19:32.913Z,930.73
2018-08-22T05:21:04.585Z,930.69
2018-08-22T05:22:36.054Z,930.69
2018-08-22T05:24:07.626Z,930.63
2018-08-22T05:25:39.197Z,930.65
2018-08-22T05:27:10.867Z,930.67
2018-08-22T05:28:42.339Z,930.72
2018-08-22T05:30:13.969Z,930.74
2018-08-22T05:31:45.479Z,930.72
2018-08-22T05:33:17.250Z,930.73
2018-08-22T05:34:48.620Z,930.73
2018-08-22T05:36:20.191Z,930.74
2018-08-22T05:37:51.761Z,930.71
2018-08-22T05:39:23.433Z,930.66
2018-08-22T05:40:54.902Z,930.64
2018-08-22T05:42:26.473Z,930.63
2018-08-22T05:43:58.046Z,930.67
2018-08-22T05:45:29.716Z,930.65
2018-08-22T05:47:01.185Z,930.65
2018-08-22T05:48:32.755Z,930.63
2018-08-22T05:50:04.326Z,930.57
2018-08-22T05:51:36.098Z,930.58
2018-08-22T05:53:07.468Z,930.53
2018-08-22T05:54:39.038Z,930.54
2018-08-22T05:56:10.610Z,930.56
2018-08-22T05:57:42.491Z,930.57
2018-08-22T05:59:13.750Z,930.53
2018-08-22T06:00:45.322Z,930.52
2018-08-22T06:02:16.892Z,930.55
2018-08-22T06:03:48.562Z,930.47
2018-08-22T06:06:52.140Z,930.48
2018-08-22T06:08:23.175Z,930.52
2018-08-22T06:09:54.995Z,930.53
2018-08-22T06:11:26.320Z,930.52
2018-08-22T06:12:57.886Z,930.44
2018-08-22T06:14:29.457Z,930.41
2018-08-22T06:16:01.128Z,930.43
2018-08-22T06:17:32.598Z,930.42
2018-08-22T06:19:04.169Z,930.36
2018-08-22T06:20:35.752Z,930.38
2018-08-22T06:22:07.413Z,930.35
2018-08-22T06:23:39.189Z,930.37
2018-08-22T06:25:10.452Z,930.35
2018-08-22T06:26:42.023Z,930.31
2018-08-22T06:28:13.796Z,930.37
2018-08-22T06:29:45.164Z,930.35
2018-08-22T06:31:16.736Z,930.33
2018-08-22T06:32:48.308Z,930.26
2018-08-22T06:34:19.976Z,930.29
2018-08-22T06:35:51.446Z,930.23
2018-08-22T06:37:23.017Z,930.26
2018-08-22T06:38:54.588Z,930.17
2018-08-22T06:40:26.259Z,930.17
2018-08-22T06:41:57.729Z,930.18
2018-08-22T06:43:29.299Z,930.22
2018-08-22T06:45:00.870Z,930.20
2018-08-22T06:46:32.691Z,930.23
2018-08-22T06:48:04.010Z,930.25
2018-08-22T06:49:35.581Z,930.29
2018-08-22T06:51:07.151Z,930.29
2018-08-22T06:52:38.822Z,930.34
2018-08-22T06:54:10.292Z,930.33
2018-08-22T06:55:42.166Z,930.29
2018-08-22T06:57:13.525Z,930.23
2018-08-22T06:58:45.104Z,930.22
2018-08-22T07:00:16.578Z,930.18
2018-08-22T07:01:48.145Z,930.21
2018-08-22T07:03:19.714Z,930.22
2018-08-22T07:04:51.636Z,930.29
2018-08-22T07:06:22.855Z,930.31
2018-08-22T07:07:54.459Z,930.37
2018-08-22T07:09:25.999Z,930.36
2018-08-22T07:10:57.667Z,930.38
2018-08-22T07:12:29.139Z,930.33
2018-08-22T07:14:00.712Z,930.30
2018-08-22T07:15:32.281Z,930.29
2018-08-22T07:17:03.949Z,930.29
2018-08-22T07:18:35.420Z,930.27
2018-08-22T07:20:06.991Z,930.29
2018-08-22T07:21:38.561Z,930.29
2018-08-22T07:23:10.334Z,930.28
2018-08-22T07:24:41.709Z,930.30
2018-08-22T07:26:13.272Z,930.30
2018-08-22T07:27:44.844Z,930.25
2018-08-22T07:29:16.514Z,930.27
2018-08-22T07:30:47.985Z,930.24
2018-08-22T07:32:19.556Z,930.21
2018-08-22T07:33:51.126Z,930.21
2018-08-22T07:35:22.806Z,930.18
2018-08-22T07:36:54.267Z,930.23
2018-08-22T07:38:25.838Z,930.25
2018-08-22T07:39:57.408Z,930.28
2018-08-22T07:41:29.231Z,930.27
2018-08-22T07:43:00.549Z,930.28
2018-08-22T07:44:32.134Z,930.29
2018-08-22T07:46:03.691Z,930.26
2018-08-22T07:47:35.364Z,930.29
2018-08-22T07:49:06.832Z,930.36
2018-08-22T07:50:38.405Z,930.37
2018-08-22T07:52:09.974Z,930.36
2018-08-22T07:53:41.695Z,930.37
2018-08-22T07:55:13.115Z,930.41
2018-08-22T07:56:44.690Z,930.45
2018-08-22T07:58:16.256Z,930.44
2018-08-22T07:59:48.076Z,930.51
2018-08-22T08:01:19.398Z,930.49
2018-08-22T08:02:50.967Z,930.50
2018-08-22T08:04:22.538Z,930.52
2018-08-22T08:05:54.359Z,930.54
2018-08-22T08:07:25.679Z,930.52
2018-08-22T08:08:57.252Z,930.55
2018-08-22T08:10:28.823Z,930.59
2018-08-22T08:12:00.491Z,930.61
2018-08-22T08:13:31.961Z,930.57
2018-08-22T08:15:03.531Z,930.57
2018-08-22T08:16:35.103Z,930.55
2018-08-22T08:18:06.924Z,930.56
2018-08-22T08:19:38.242Z,930.57
2018-08-22T08:21:09.816Z,930.62
2018-08-22T08:22:41.430Z,930.57
2018-08-22T08:24:13.058Z,930.66
2018-08-22T08:25:44.524Z,930.61
2018-08-22T08:27:16.094Z,930.59
2018-08-22T08:28:47.765Z,930.63
2018-08-22T08:30:19.336Z,930.57
2018-08-22T08:31:50.806Z,930.61
2018-08-22T08:33:22.377Z,930.59
2018-08-22T08:34:53.950Z,930.62
2018-08-22T08:36:25.868Z,930.67
2018-08-22T08:37:57.392Z,930.68
2018-08-22T08:39:28.660Z,930.68
2018-08-22T08:41:00.230Z,930.70
2018-08-22T08:42:31.930Z,930.71
2018-08-22T08:44:03.370Z,930.72
2018-08-22T08:45:34.943Z,930.74
2018-08-22T08:47:06.511Z,930.79
2018-08-22T08:48:38.183Z,930.79
2018-08-22T08:50:09.656Z,930.83
2018-08-22T08:51:41.961Z,930.81
2018-08-22T08:53:12.794Z,930.89
2018-08-22T08:54:44.615Z,930.91
2018-08-22T08:56:15.937Z,930.95
2018-08-22T08:57:47.506Z,930.98
2018-08-22T08:59:19.083Z,931.03
2018-08-22T09:00:50.748Z,931.04
2018-08-22T09:02:22.217Z,931.02
2018-08-22T09:03:53.816Z,931.03
2018-08-22T09:08:28.649Z,931.12
2018-08-22T09:10:00.070Z,931.12
2018-08-22T09:11:31.640Z,931.10
2018-08-22T09:13:03.213Z,931.11
2018-08-22T09:14:35.031Z,931.02
2018-08-22T09:16:06.353Z,931.06
2018-08-22T09:17:37.962Z,931.07
2018-08-22T09:19:09.494Z,931.09
2018-08-22T09:20:41.164Z,931.09
2018-08-22T09:22:12.660Z,931.05
2018-08-22T09:23:44.204Z,931.04
2018-08-22T09:25:15.775Z,931.03
2018-08-22T09:26:47.446Z,931.06
2018-08-22T09:28:18.918Z,931.07
2018-08-22T09:29:50.488Z,931.02
2018-08-22T09:31:22.058Z,931.05
2018-08-22T09:32:53.879Z,931.03
2018-08-22T09:34:25.215Z,931.05
2018-08-22T09:35:56.798Z,931.12
2018-08-22T09:37:28.342Z,931.15
2018-08-22T09:39:00.012Z,931.23
2018-08-22T09:40:31.544Z,931.22
2018-08-22T09:42:03.052Z,931.24
2018-08-22T09:43:34.623Z,931.23
2018-08-22T09:45:06.303Z,931.24
2018-08-22T09:46:37.854Z,931.27
2018-08-22T09:48:09.335Z,931.27
2018-08-22T09:49:41.109Z,931.31
2018-08-22T09:51:12.783Z,931.34
2018-08-22T09:52:44.047Z,931.41
2018-08-22T09:54:15.623Z,931.52
2018-08-22T09:57:18.861Z,931.52
2018-08-22T09:58:50.382Z,931.51
2018-08-22T10:00:21.982Z,931.53
2018-08-22T10:01:54.008Z,931.54
2018-08-22T10:03:25.143Z,931.57
2018-08-22T10:04:56.793Z,931.55
2018-08-22T10:06:28.277Z,931.60
2018-08-22T10:07:59.755Z,931.63
2018-08-22T10:09:31.784Z,931.69
2018-08-22T10:12:34.466Z,931.69
2018-08-22T10:14:06.043Z,931.67
2018-08-22T10:15:37.813Z,931.65
2018-08-22T10:17:09.197Z,931.66
2018-08-22T10:18:41.054Z,931.61
2018-08-22T10:20:12.726Z,931.55
2018-08-22T10:21:45.844Z,931.58
2018-08-22T10:23:15.462Z,931.59
2018-08-22T10:24:47.055Z,931.67
2018-08-22T10:26:18.605Z,931.65
2018-08-22T10:27:50.518Z,931.66
2018-08-22T10:29:21.749Z,931.61
2018-08-22T10:30:53.856Z,931.64
2018-08-22T10:32:25.094Z,931.68
2018-08-22T10:33:56.564Z,931.65
2018-08-22T10:35:28.034Z,931.68
2018-08-22T10:38:31.222Z,931.72
2018-08-22T10:40:03.003Z,931.69
2018-08-22T10:41:34.347Z,931.64
2018-08-22T10:43:05.908Z,931.65
2018-08-22T10:44:37.669Z,931.66
2018-08-22T10:46:09.339Z,931.70
2018-08-22T10:47:40.814Z,931.76
2018-08-22T10:49:12.216Z,931.77
2018-08-22T10:52:15.966Z,931.80
2018-08-22T10:53:46.951Z,931.80
2018-08-22T10:55:18.689Z,931.79
2018-08-22T10:56:50.048Z,931.80
2018-08-22T10:58:22.046Z,931.81
2018-08-22T10:59:53.379Z,931.86
2018-08-22T11:01:24.765Z,931.90
2018-08-22T11:02:56.673Z,931.99
2018-08-22T11:07:31.390Z,932.06
2018-08-22T11:10:34.211Z,932.14
2018-08-22T11:13:37.821Z,932.11
2018-08-22T11:15:08.946Z,932.17
2018-08-22T11:16:40.526Z,932.16
2018-08-22T11:18:12.176Z,932.16
2018-08-22T11:19:44.000Z,932.16
2018-08-22T11:21:15.221Z,932.21
2018-08-22T11:22:46.941Z,932.17
2018-08-22T11:24:18.906Z,932.13
2018-08-22T11:25:50.349Z,932.11
2018-08-22T11:28:53.133Z,932.11
2018-08-22T11:30:24.976Z,932.03
2018-08-22T11:33:28.338Z,931.95
2018-08-22T11:34:59.398Z,931.95
2018-08-22T11:38:02.547Z,932.04
2018-08-22T11:41:06.103Z,931.99
2018-08-22T11:42:37.398Z,932.02
2018-08-22T11:44:08.850Z,932.05
2018-08-22T11:48:44.319Z,931.91
2018-08-22T11:50:15.361Z,931.96
2018-08-22T11:53:18.313Z,931.91
2018-08-22T11:54:50.061Z,931.87
2018-08-22T11:56:21.470Z,931.90
2018-08-22T11:57:53.044Z,931.91
2018-08-22T11:59:25.157Z,931.94
2018-08-22T12:00:57.093Z,931.93
2018-08-22T12:02:27.774Z,931.92
2018-08-22T12:03:59.655Z,931.93
2018-08-22T12:05:30.935Z,931.93
2018-08-22T12:07:02.888Z,931.96
2018-08-22T12:10:05.665Z,932.01
2018-08-22T12:11:37.567Z,932.04
2018-08-22T12:13:08.928Z,932.09
2018-08-22T12:14:40.700Z,932.13
2018-08-22T12:16:12.140Z,932.13
2018-08-22T12:17:43.567Z,932.05
2018-08-22T12:19:15.771Z,932.02
2018-08-22T12:20:46.714Z,931.95
2018-08-22T12:22:18.524Z,931.97
2018-08-22T12:23:50.075Z,932.05
2018-08-22T12:25:22.290Z,932.10
2018-08-22T12:26:53.339Z,932.16
2018-08-22T12:28:24.613Z,932.16
2018-08-22T12:29:56.195Z,932.21
2018-08-22T12:31:27.875Z,932.21
2018-08-22T12:33:00.268Z,932.25
2018-08-22T12:34:30.939Z,932.25
2018-08-22T12:36:02.520Z,932.21
2018-08-22T12:40:37.753Z,932.22
2018-08-22T12:42:08.859Z,932.21
2018-08-22T12:43:40.558Z,932.26
2018-08-22T12:46:44.296Z,932.15
2018-08-22T12:48:15.475Z,932.18
2018-08-22T12:49:47.289Z,932.19
2018-08-22T12:51:18.338Z,932.13
2018-08-22T12:52:50.096Z,932.09
2018-08-22T12:54:21.802Z,932.10
2018-08-22T12:57:24.662Z,932.15
2018-08-22T12:58:56.571Z,932.22
2018-08-22T13:00:28.026Z,932.20
2018-08-22T13:01:59.415Z,932.14
2018-08-22T13:03:30.994Z,932.06
2018-08-22T13:05:02.670Z,932.05
2018-08-22T13:06:35.075Z,932.05
2018-08-22T13:08:06.134Z,932.05
2018-08-22T13:11:09.340Z,932.09
2018-08-22T13:12:40.577Z,932.13
2018-08-22T13:15:43.654Z,932.27
2018-08-22T13:17:15.471Z,932.34
2018-08-22T13:18:46.807Z,932.31
2018-08-22T13:20:18.390Z,932.22
2018-08-22T13:21:50.492Z,932.18
2018-08-22T13:23:22.002Z,932.08
2018-08-22T13:26:24.711Z,931.97
2018-08-22T13:27:56.599Z,931.94
2018-08-22T13:29:28.521Z,932.01
2018-08-22T13:31:00.757Z,931.96
2018-08-22T13:32:33.367Z,932.02
2018-08-22T13:34:05.132Z,932.09
2018-08-22T13:35:35.965Z,932.02
2018-08-22T13:37:06.468Z,931.88
2018-08-22T13:38:38.930Z,931.92
2018-08-22T13:40:10.892Z,931.80
2018-08-22T13:41:42.423Z,931.78
2018-08-22T13:43:13.201Z,931.71
2018-08-22T13:44:44.565Z,931.67
2018-08-22T13:46:17.660Z,931.71
2018-08-22T13:47:49.402Z,931.53
2018-08-22T13:49:20.487Z,931.45
2018-08-22T13:50:50.455Z,931.53
2018-08-22T13:52:22.298Z,931.56
2018-08-22T13:53:55.244Z,931.54
2018-08-22T13:56:57.120Z,931.62
2018-08-22T13:58:28.418Z,931.66
2018-08-22T14:00:00.343Z,931.71
2018-08-22T14:03:03.895Z,931.57
2018-08-22T14:04:35.773Z,931.53
2018-08-22T14:06:07.490Z,931.38
2018-08-22T14:09:09.868Z,931.28
2018-08-22T14:10:40.925Z,931.24
2018-08-22T14:12:13.123Z,931.21
2018-08-22T14:13:43.946Z,931.16
2018-08-22T14:15:15.635Z,931.21
2018-08-22T14:16:48.310Z,931.21
2018-08-22T14:18:21.007Z,931.19
2018-08-22T14:19:51.958Z,931.11
2018-08-22T14:21:22.268Z,931.09
2018-08-22T14:22:53.523Z,931.10
2018-08-22T14:24:25.189Z,931.07
2018-08-22T14:25:56.519Z,931.06
2018-08-22T14:28:59.835Z,931.05
2018-08-22T14:30:31.799Z,931.15
2018-08-22T14:32:03.396Z,931.13
2018-08-22T14:33:36.073Z,931.13
2018-08-22T14:36:37.725Z,931.01
2018-08-22T14:38:10.131Z,931.00
2018-08-22T14:39:41.149Z,930.94
2018-08-22T14:41:12.664Z,931.01
2018-08-22T14:42:44.239Z,931.02
2018-08-22T14:44:15.916Z,931.02
2018-08-22T14:45:48.064Z,930.98
2018-08-22T14:47:20.869Z,930.92
2018-08-22T14:48:51.927Z,930.91
2018-08-22T14:50:23.785Z,930.97
2018-08-22T14:51:57.151Z,930.99
2018-08-22T14:53:25.776Z,930.93
2018-08-22T14:54:56.816Z,930.89
2018-08-22T14:56:29.320Z,930.85
2018-08-22T14:58:00.411Z,930.76
2018-08-22T14:59:32.576Z,930.80
2018-08-22T15:01:04.809Z,930.82
2018-08-22T15:02:36.119Z,930.83
2018-08-22T15:05:38.824Z,930.98
2018-08-22T15:07:09.783Z,930.99
2018-08-22T15:08:41.661Z,931.19
2018-08-22T15:10:12.491Z,931.26
2018-08-22T15:11:46.415Z,931.30
2018-08-22T15:13:18.464Z,931.25
2018-08-22T15:14:48.130Z,931.24
2018-08-22T15:16:20.180Z,931.23
2018-08-22T15:17:51.139Z,931.11
2018-08-22T15:19:23.425Z,931.02
2018-08-22T15:20:56.804Z,930.94
2018-08-22T15:22:26.902Z,930.88
2018-08-22T15:23:57.621Z,930.89
2018-08-22T15:25:29.982Z,930.78
2018-08-22T15:27:00.527Z,930.72
2018-08-22T15:28:32.726Z,930.61
2018-08-22T15:30:03.763Z,930.60
2018-08-22T15:31:35.525Z,930.53
2018-08-22T15:33:06.761Z,930.66
2018-08-22T15:34:38.166Z,930.73
2018-08-22T15:36:09.856Z,930.77
2018-08-22T15:37:41.496Z,930.66
2018-08-22T15:39:14.435Z,930.57
2018-08-22T15:40:44.408Z,930.41
2018-08-22T15:42:15.831Z,930.34
2018-08-22T15:43:47.744Z,930.27
2018-08-22T15:45:18.893Z,930.20
2018-08-22T15:46:51.162Z,930.20
2018-08-22T15:48:23.432Z,930.17
2018-08-22T15:51:25.984Z,930.26
2018-08-22T15:52:57.159Z,930.27
2018-08-22T15:54:28.748Z,930.19
2018-08-22T15:56:00.291Z,930.22
2018-08-22T15:57:32.605Z,930.19
2018-08-22T15:59:04.025Z,930.11
2018-08-22T16:00:35.525Z,930.12
2018-08-22T16:02:06.784Z,930.10
2018-08-22T16:05:12.077Z,930.16
2018-08-22T16:06:42.289Z,930.15
2018-08-22T16:08:13.399Z,930.15
2018-08-22T16:09:45.082Z,930.03
2018-08-22T16:11:16.815Z,930.01
2018-08-22T16:12:48.548Z,929.90
2018-08-22T16:14:20.159Z,929.93
2018-08-22T16:15:51.442Z,929.88
2018-08-22T16:17:23.759Z,929.84
2018-08-22T16:18:55.553Z,929.79
2018-08-22T16:20:26.155Z,929.74
2018-08-22T16:21:57.741Z,929.72
2018-08-22T16:23:29.603Z,929.62
2018-08-22T16:25:01.123Z,929.53
2018-08-22T16:26:33.036Z,929.49
2018-08-22T16:28:04.213Z,929.51
2018-08-22T16:29:35.898Z,929.33
2018-08-22T16:31:07.360Z,929.35
2018-08-22T16:32:39.846Z,929.36
2018-08-22T16:34:10.872Z,929.24
2018-08-22T16:35:41.755Z,929.24
2018-08-22T16:37:14.041Z,929.24
2018-08-22T16:38:45.469Z,929.25
2018-08-22T16:40:16.763Z,929.26
2018-08-22T16:41:48.361Z,929.25
2018-08-22T16:43:19.993Z,929.14
2018-08-22T16:44:52.351Z,929.12
2018-08-22T16:46:24.236Z,929.00
2018-08-22T16:47:54.811Z,928.97
2018-08-22T16:49:26.798Z,928.94
2018-08-22T16:50:58.117Z,928.88
2018-08-22T16:52:29.785Z,928.88
2018-08-22T16:54:01.880Z,928.87
2018-08-22T16:55:33.344Z,928.88
2018-08-22T16:57:04.682Z,928.94
2018-08-22T16:58:36.960Z,928.97
2018-08-22T17:00:07.463Z,928.97
2018-08-22T17:01:38.897Z,928.98
2018-08-22T17:03:11.654Z,928.97
2018-08-22T17:04:41.671Z,928.88
2018-08-22T17:06:14.845Z,928.82
2018-08-22T17:07:45.084Z,928.82
2018-08-22T17:09:16.236Z,928.84
2018-08-22T17:10:50.716Z,928.79
2018-08-22T17:12:20.553Z,928.78
2018-08-22T17:13:54.399Z,928.75
2018-08-22T17:15:24.734Z,928.68
2018-08-22T17:16:56.331Z,928.64
2018-08-22T17:18:27.415Z,928.60
2018-08-22T17:19:58.285Z,928.71
2018-08-22T17:21:30.371Z,928.75
2018-08-22T17:23:01.475Z,928.78
2018-08-22T17:24:34.484Z,928.72
2018-08-22T17:26:04.388Z,928.70
2018-08-22T17:27:35.143Z,928.68
2018-08-22T17:29:08.457Z,928.67
2018-08-22T17:30:40.520Z,928.63
2018-08-22T17:32:11.681Z,928.53
2018-08-22T17:33:42.932Z,928.46
2018-08-22T17:35:15.270Z,928.49
2018-08-22T17:36:45.362Z,928.32
2018-08-22T17:38:18.126Z,928.24
2018-08-22T17:39:48.529Z,928.28
2018-08-22T17:41:20.189Z,928.29
2018-08-22T17:42:52.210Z,928.23
2018-08-22T17:44:23.854Z,928.29
2018-08-22T17:45:55.783Z,928.33
2018-08-22T17:47:27.521Z,928.28
2018-08-22T17:49:00.235Z,928.38
2018-08-22T17:50:32.291Z,928.48
2018-08-22T17:52:01.734Z,928.49
2018-08-22T17:53:32.820Z,928.41
2018-08-22T17:55:04.897Z,928.37
2018-08-22T17:56:35.902Z,928.40
2018-08-22T17:58:08.462Z,928.32
2018-08-22T17:59:39.457Z,928.32
2018-08-22T18:01:10.498Z,928.26
2018-08-22T18:02:41.575Z,928.09
2018-08-22T18:04:14.585Z,928.09
2018-08-22T18:05:46.537Z,927.97
2018-08-22T18:07:17.271Z,927.96
2018-08-22T18:08:49.650Z,927.92
2018-08-22T18:10:21.717Z,927.97
2018-08-22T18:11:53.758Z,927.94
2018-08-22T18:13:24.043Z,927.94
2018-08-22T18:14:55.481Z,927.95
2018-08-22T18:16:27.391Z,927.98
2018-08-22T18:18:00.503Z,927.94
2018-08-22T18:19:31.106Z,927.93
2018-08-22T18:21:01.006Z,927.98
2018-08-22T18:22:33.712Z,928.07
2018-08-22T18:24:05.171Z,928.07
2018-08-22T18:25:36.405Z,928.07
2018-08-22T18:27:08.063Z,928.05
2018-08-22T18:28:39.205Z,928.01
2018-08-22T18:30:10.971Z,928.00
2018-08-22T18:31:43.376Z,928.01
2018-08-22T18:33:14.455Z,927.95
2018-08-22T18:34:45.607Z,927.97
2018-08-22T18:37:48.892Z,927.88
2018-08-22T18:39:19.717Z,927.90
2018-08-22T18:40:53.486Z,927.91
2018-08-22T18:42:24.580Z,927.83
2018-08-22T18:43:56.025Z,927.84
2018-08-22T18:45:26.482Z,927.91
2018-08-22T18:46:58.239Z,928.00
2018-08-22T18:48:29.620Z,927.97
2018-08-22T18:50:04.022Z,928.01
2018-08-22T18:51:32.648Z,928.08
2018-08-22T18:53:04.149Z,928.00
2018-08-22T18:54:35.510Z,927.96
2018-08-22T18:56:08.056Z,927.96
2018-08-22T18:57:39.041Z,928.02
2018-08-22T18:59:10.108Z,927.96
2018-08-22T19:00:41.554Z,927.94
2018-08-22T19:02:13.823Z,927.97
2018-08-22T19:03:45.204Z,927.95
2018-08-22T19:05:16.953Z,927.94
2018-08-22T19:06:48.357Z,927.89
2018-08-22T19:08:20.197Z,927.91
2018-08-22T19:09:51.415Z,927.83
2018-08-22T19:11:22.910Z,927.78
2018-08-22T19:12:54.272Z,927.83
2018-08-22T19:14:25.954Z,927.81
2018-08-22T19:15:57.538Z,927.79
2018-08-22T19:17:29.247Z,927.80
2018-08-22T19:19:00.507Z,927.87
2018-08-22T19:20:32.427Z,927.89
2018-08-22T19:22:03.785Z,927.91
2018-08-22T19:23:35.603Z,927.96
2018-08-22T19:25:07.179Z,927.98
2018-08-22T19:26:38.877Z,927.99
2018-08-22T19:28:10.040Z,928.01
2018-08-22T19:29:41.816Z,928.01
2018-08-22T19:31:13.138Z,928.02
2018-08-22T19:32:45.341Z,928.00
2018-08-22T19:34:16.597Z,928.05
2018-08-22T19:35:48.163Z,928.02
2018-08-22T19:37:19.603Z,928.08
2018-08-22T19:38:51.184Z,928.09
2018-08-22T19:40:22.638Z,928.11
2018-08-22T19:41:54.227Z,928.09
2018-08-22T19:43:25.787Z,928.09
2018-08-22T19:44:58.544Z,928.08
2018-08-22T19:46:29.033Z,928.17
2018-08-22T19:48:00.849Z,928.15
2018-08-22T19:49:32.542Z,928.23
2018-08-22T19:51:04.054Z,928.18
2018-08-22T19:52:35.400Z,928.18
2018-08-22T19:54:06.898Z,928.22
2018-08-22T19:55:38.727Z,928.20
2018-08-22T19:57:11.998Z,928.23
2018-08-22T19:58:41.779Z,928.25
2018-08-22T20:01:45.058Z,928.26